Blue Star Naxos — SZUI — position and weather

sailwx.info

Track history (hours):
 
Tides and Currents Weather Stations Pressure Air Temp Water Temp Dewpoint Dewpoint Depression Visibility Wind Speed Wind Dir Waves Ship Positions

Blue Star Naxos

Last reported at 2017-Aug-16 21:31 UTC. Time now 2017-Aug-16 21:50 UTC.
Position N 37°57' E 023°38'.

Length 124 m; draft 5 m.

Type: Passenger vessel. MMSI: 239923000.

Date/timePositionNaut miles runAvg speedWind from/ knotsBaromVisibWave heightAir tempDewpointWater temp
2017-Aug-16 21:31N 37°57' E 023°38'0 0.0
2017-Aug-16 21:01N 37°57' E 023°38'0 0.0
2017-Aug-16 20:30N 37°57' E 023°38'0 0.0
2017-Aug-16 20:00N 37°57' E 023°38'0 0.0
2017-Aug-16 19:30N 37°57' E 023°38'0 0.0
2017-Aug-16 19:01N 37°57' E 023°38'0 0.0
2017-Aug-16 18:30N 37°57' E 023°38'0 0.0
2017-Aug-16 18:00N 37°57' E 023°38'0 0.0
2017-Aug-16 17:31N 37°57' E 023°38'1 2.7
2017-Aug-16 17:01N 37°56' E 023°37'1020.5
2017-Aug-16 16:31N 37°47' E 023°42'1120.8
2017-Aug-16 15:57N 37°39' E 023°53'4121.8
2017-Aug-16 14:04N 37°31' E 024°44'223.0
2017-Aug-16 14:00N 37°31' E 024°46'1019.4
2017-Aug-16 13:30N 37°28' E 024°57'2 2.1
2017-Aug-16 12:37N 37°26' E 024°57'722.4
2017-Aug-16 12:17N 37°30' E 025°05'415.7
2017-Aug-16 12:00N 37°32' E 025°09'510.4
2017-Aug-16 11:30N 37°30' E 025°15'4 7.9
2017-Aug-16 11:00N 37°28' E 025°19'0 0.0
2017-Aug-16 10:30N 37°28' E 025°19'1 1.8
2017-Aug-16 10:01N 37°28' E 025°18'816.5
2017-Aug-16 09:30N 37°32' E 025°09'917.7
2017-Aug-16 09:00N 37°27' E 024°60'3 4.5
2017-Aug-16 08:21N 37°26' E 024°57'514.4
2017-Aug-16 08:00N 37°31' E 024°54'4821.9
2017-Aug-16 05:49N 37°37' E 023°54'722.6
2017-Aug-16 05:30N 37°39' E 023°46'1121.8
2017-Aug-16 05:00N 37°48' E 023°38'917.9
2017-Aug-16 04:31N 37°57' E 023°38'0 0.1
2017-Aug-16 04:00N 37°57' E 023°38'0 0.0
2017-Aug-16 03:30N 37°57' E 023°38'0 0.0
2017-Aug-16 03:00N 37°57' E 023°38'0 0.0
2017-Aug-16 02:30N 37°57' E 023°38'0 0.0
2017-Aug-16 02:00N 37°57' E 023°38'0 0.0
2017-Aug-16 01:30N 37°57' E 023°38'3 6.2
2017-Aug-16 01:01N 37°54' E 023°38'1121.2
2017-Aug-16 00:31N 37°44' E 023°44'6321.0
2017-Aug-15 21:29N 37°10' E 024°51'1021.2
2017-Aug-15 21:01N 37°07' E 025°03'5 7.9
2017-Aug-15 20:25N 37°05' E 025°09'513.4
2017-Aug-15 20:00N 37°10' E 025°13'816.2
2017-Aug-15 19:31N 37°06' E 025°22'2 3.4
2017-Aug-15 19:01N 37°06' E 025°20'7 0.8
2017-Aug-15 09:55N 36°59' E 025°21'717.3
2017-Aug-15 09:30N 37°06' E 025°21'4 7.4
2017-Aug-15 09:00N 37°09' E 025°19'917.1
2017-Aug-15 08:28N 37°05' E 025°08'2 4.0
2017-Aug-15 08:00N 37°06' E 025°06'1122.2
2017-Aug-15 07:30N 37°10' E 024°53'5622.2
2017-Aug-15 04:59N 37°35' E 023°50'1122.3
2017-Aug-15 04:30N 37°43' E 023°41'1122.6
2017-Aug-15 04:00N 37°54' E 023°37'3 6.5
2017-Aug-15 03:30N 37°57' E 023°38'0 0.0
2017-Aug-15 03:00N 37°57' E 023°38'0 0.0
2017-Aug-15 02:30N 37°57' E 023°38'0 0.0
2017-Aug-15 02:00N 37°57' E 023°38'0 0.0
2017-Aug-15 01:30N 37°57' E 023°38'0 0.0
2017-Aug-15 01:00N 37°57' E 023°38'0 0.0
2017-Aug-15 00:30N 37°57' E 023°38'0 0.0
2017-Aug-15 00:00N 37°57' E 023°38'0 0.0
2017-Aug-14 23:30N 37°57' E 023°38'0 0.0
2017-Aug-14 23:00N 37°57' E 023°38'0 0.0
2017-Aug-14 22:30N 37°57' E 023°38'0 0.0
2017-Aug-14 22:00N 37°57' E 023°38'0 0.0
2017-Aug-14 21:30N 37°57' E 023°38'0 0.0
2017-Aug-14 21:00N 37°57' E 023°38'0 0.0
2017-Aug-14 20:30N 37°57' E 023°38'0 0.0
2017-Aug-14 20:00N 37°57' E 023°38'0 0.0
2017-Aug-14 19:30N 37°57' E 023°38'0 0.0
2017-Aug-14 19:00N 37°57' E 023°38'0 0.0
2017-Aug-14 18:30N 37°57' E 023°38'0 0.0
2017-Aug-14 18:00N 37°57' E 023°38'0 0.0
2017-Aug-14 17:29N 37°57' E 023°38'0 0.0
2017-Aug-14 17:00N 37°57' E 023°38'4 7.1
2017-Aug-14 16:31N 37°53' E 023°39'1122.4
2017-Aug-14 16:00N 37°43' E 023°44'4921.6
2017-Aug-14 13:46N 37°31' E 024°44'622.5
2017-Aug-14 13:31N 37°31' E 024°51'6 6.9
2017-Aug-14 12:36N 37°26' E 024°57'0 5.3
2017-Aug-14 12:30N 37°26' E 024°57'1122.5
2017-Aug-14 12:00N 37°32' E 025°09'4 8.7
2017-Aug-14 11:31N 37°30' E 025°14'5 9.8
2017-Aug-14 11:00N 37°28' E 025°19'0 0.0
2017-Aug-14 10:30N 37°28' E 025°19'0 0.4
2017-Aug-14 10:00N 37°28' E 025°19'917.9
2017-Aug-14 09:30N 37°32' E 025°09'612.1
2017-Aug-14 09:00N 37°29' E 025°03'6 7.4
2017-Aug-14 08:16N 37°26' E 024°57'618.7
2017-Aug-14 07:55N 37°31' E 024°52'4621.9
2017-Aug-14 05:49N 37°37' E 023°55'722.5
2017-Aug-14 05:30N 37°39' E 023°46'1121.6
2017-Aug-14 05:01N 37°48' E 023°39'918.3
2017-Aug-14 04:30N 37°57' E 023°38'0 0.1
2017-Aug-14 04:00N 37°57' E 023°38'0 0.0
2017-Aug-14 03:30N 37°57' E 023°38'0 0.0
2017-Aug-14 03:00N 37°57' E 023°38'0 0.0
2017-Aug-14 02:30N 37°57' E 023°38'0 0.0
2017-Aug-14 02:00N 37°57' E 023°38'0 0.0
2017-Aug-14 01:30N 37°57' E 023°38'4 7.2
2017-Aug-14 01:00N 37°53' E 023°38'1121.4
2017-Aug-14 00:31N 37°44' E 023°44'1121.1
2017-Aug-14 00:00N 37°36' E 023°54'5221.7
2017-Aug-13 21:36N 37°11' E 024°51'222.0
2017-Aug-13 21:30N 37°10' E 024°53'1121.8
2017-Aug-13 21:01N 37°06' E 025°06'2 3.1
2017-Aug-13 20:31N 37°05' E 025°08'917.9
2017-Aug-13 20:00N 37°10' E 025°17'510.2
2017-Aug-13 19:31N 37°06' E 025°22'611.7
2017-Aug-13 19:00N 37°01' E 025°20'2 0.2
2017-Aug-13 10:11N 36°59' E 025°21'421.7
2017-Aug-13 10:00N 37°02' E 025°19'510.0
2017-Aug-13 09:31N 37°06' E 025°22'510.6
2017-Aug-13 09:01N 37°10' E 025°17'9 9.8
2017-Aug-13 08:08N 37°05' E 025°08'319.9
2017-Aug-13 08:00N 37°06' E 025°06'1122.6
2017-Aug-13 07:31N 37°10' E 024°52'5522.3
2017-Aug-13 05:02N 37°35' E 023°50'322.6
2017-Aug-13 04:55N 37°37' E 023°48'922.2
2017-Aug-13 04:30N 37°44' E 023°41'1122.5
2017-Aug-13 04:01N 37°55' E 023°37'2 5.0
2017-Aug-13 03:31N 37°57' E 023°38'0 0.0
2017-Aug-13 03:01N 37°57' E 023°38'0 0.0
2017-Aug-13 02:31N 37°57' E 023°38'0 0.0
2017-Aug-13 02:01N 37°57' E 023°38'0 0.0
2017-Aug-13 01:31N 37°57' E 023°38'0 0.0
2017-Aug-13 01:01N 37°57' E 023°38'0 0.0
2017-Aug-13 00:30N 37°57' E 023°38'0 0.0
2017-Aug-13 00:01N 37°57' E 023°38'0 0.0
2017-Aug-12 23:31N 37°57' E 023°38'0 0.0
2017-Aug-12 23:01N 37°57' E 023°38'0 0.0
2017-Aug-12 22:30N 37°57' E 023°38'0 0.0
2017-Aug-12 22:00N 37°57' E 023°38'0 0.0
2017-Aug-12 21:31N 37°57' E 023°38'0 0.0
2017-Aug-12 21:01N 37°57' E 023°38'0 0.0
2017-Aug-12 20:31N 37°57' E 023°38'0 0.0
2017-Aug-12 20:00N 37°57' E 023°38'0 0.0
2017-Aug-12 19:31N 37°57' E 023°38'0 0.0
2017-Aug-12 19:00N 37°57' E 023°38'0 0.0
2017-Aug-12 18:31N 37°57' E 023°38'0 0.0
2017-Aug-12 18:01N 37°57' E 023°38'0 0.0
2017-Aug-12 17:31N 37°57' E 023°38'0 0.0
2017-Aug-12 17:00N 37°57' E 023°38'3 6.5
2017-Aug-12 16:30N 37°54' E 023°38'1122.4
2017-Aug-12 16:00N 37°44' E 023°44'1121.8
2017-Aug-12 15:29N 37°38' E 023°57'3822.2
2017-Aug-12 13:47N 37°31' E 024°44'622.3
2017-Aug-12 13:30N 37°31' E 024°52'611.8
2017-Aug-12 13:00N 37°26' E 024°57'1 1.8
2017-Aug-12 12:31N 37°26' E 024°58'1122.0
2017-Aug-12 12:00N 37°32' E 025°09'5 9.4
2017-Aug-12 11:30N 37°30' E 025°14'4 8.9
2017-Aug-12 11:00N 37°28' E 025°19'0 0.0
2017-Aug-12 10:30N 37°28' E 025°19'713.9
2017-Aug-12 10:00N 37°31' E 025°12'4 8.3
2017-Aug-12 09:30N 37°31' E 025°06'916.2
2017-Aug-12 08:57N 37°26' E 024°57'0 0.0
2017-Aug-12 08:19N 37°26' E 024°57'614.9
2017-Aug-12 07:56N 37°31' E 024°52'4721.8
2017-Aug-12 05:46N 37°37' E 023°54'622.0
2017-Aug-12 05:30N 37°39' E 023°47'1121.5
2017-Aug-12 05:01N 37°48' E 023°38'918.4
2017-Aug-12 04:30N 37°57' E 023°38'0 0.1
2017-Aug-12 04:00N 37°57' E 023°38'0 0.0
2017-Aug-12 03:31N 37°57' E 023°38'611.9
2017-Aug-12 03:01N 37°51' E 023°40'1122.5
2017-Aug-12 02:30N 37°42' E 023°49'5921.9
2017-Aug-11 23:49N 37°10' E 024°51'722.6
2017-Aug-11 23:30N 37°08' E 024°59'8 8.5
2017-Aug-11 22:35N 37°05' E 025°09'117.7
2017-Aug-11 22:30N 37°06' E 025°07'1122.3
2017-Aug-11 22:00N 37°09' E 024°54'5821.9
2017-Aug-11 19:21N 37°36' E 023°49'822.1
2017-Aug-11 18:59N 37°42' E 023°42'1122.4
2017-Aug-11 18:31N 37°52' E 023°37'5 9.9
2017-Aug-11 18:00N 37°57' E 023°38'0 0.0
2017-Aug-11 17:30N 37°57' E 023°38'0 0.0
2017-Aug-11 17:00N 37°57' E 023°38'510.3
2017-Aug-11 16:31N 37°52' E 023°39'1122.4
2017-Aug-11 16:01N 37°42' E 023°47'4621.7
2017-Aug-11 13:52N 37°31' E 024°44'1021.2
2017-Aug-11 13:23N 37°29' E 024°57'3 7.6
2017-Aug-11 12:59N 37°26' E 024°57'2 3.5
2017-Aug-11 12:30N 37°27' E 024°59'1020.4
2017-Aug-11 12:00N 37°32' E 025°09'4 8.8
2017-Aug-11 11:31N 37°30' E 025°14'5 9.6
2017-Aug-11 11:00N 37°28' E 025°19'0 0.0
2017-Aug-11 10:30N 37°28' E 025°19'918.3
2017-Aug-11 10:00N 37°32' E 025°09'2 3.0
2017-Aug-11 09:30N 37°31' E 025°08'1018.7
2017-Aug-11 08:58N 37°26' E 024°57'0 0.7
2017-Aug-11 08:20N 37°26' E 024°57'618.3
2017-Aug-11 08:00N 37°31' E 024°52'4421.6
2017-Aug-11 05:58N 37°36' E 023°57'1022.1
2017-Aug-11 05:30N 37°39' E 023°45'1122.0
2017-Aug-11 05:01N 37°48' E 023°38'917.1
2017-Aug-11 04:30N 37°57' E 023°38'0 0.1
2017-Aug-11 04:01N 37°57' E 023°38'0 0.0
2017-Aug-11 03:31N 37°57' E 023°38'0 0.0
2017-Aug-11 03:01N 37°57' E 023°38'0 0.0
2017-Aug-11 02:31N 37°57' E 023°38'0 0.0
2017-Aug-11 02:01N 37°57' E 023°38'0 0.0
2017-Aug-11 01:30N 37°57' E 023°38'510.2
2017-Aug-11 01:00N 37°52' E 023°39'1121.5
2017-Aug-11 00:30N 37°42' E 023°45'6120.8
2017-Aug-10 21:34N 37°10' E 024°51'121.7
2017-Aug-10 21:30N 37°10' E 024°53'1121.2
2017-Aug-10 21:00N 37°06' E 025°05'2 4.1
2017-Aug-10 20:30N 37°06' E 025°07'918.2
2017-Aug-10 20:01N 37°10' E 025°17'510.5
2017-Aug-10 19:30N 37°06' E 025°22'510.8
2017-Aug-10 19:00N 37°02' E 025°19'3 0.3
2017-Aug-10 10:25N 36°59' E 025°21'717.5
2017-Aug-10 10:00N 37°06' E 025°21'1 1.5
2017-Aug-10 09:30N 37°06' E 025°22'815.4
2017-Aug-10 09:00N 37°10' E 025°14'6 8.7
2017-Aug-10 08:19N 37°05' E 025°08'621.3
2017-Aug-10 08:00N 37°08' E 025°01'6521.7
2017-Aug-10 05:01N 37°37' E 023°48'222.1
2017-Aug-10 04:56N 37°38' E 023°46'922.1
2017-Aug-10 04:30N 37°45' E 023°39'1121.9
2017-Aug-10 04:00N 37°56' E 023°37'1 2.1
2017-Aug-10 03:30N 37°57' E 023°38'0 0.0
2017-Aug-10 03:00N 37°57' E 023°38'0 0.0
2017-Aug-10 02:30N 37°57' E 023°38'0 0.0
2017-Aug-10 02:00N 37°57' E 023°38'0 0.0
2017-Aug-10 01:30N 37°57' E 023°38'0 0.0
2017-Aug-10 01:00N 37°57' E 023°38'0 0.0
2017-Aug-10 00:30N 37°57' E 023°38'0 0.0
2017-Aug-10 00:00N 37°57' E 023°38'0 0.0
2017-Aug-09 23:30N 37°57' E 023°38'0 0.0
2017-Aug-09 23:00N 37°57' E 023°38'0 0.0
2017-Aug-09 22:31N 37°57' E 023°38'0 0.0
2017-Aug-09 22:00N 37°57' E 023°38'0 0.0
2017-Aug-09 21:30N 37°57' E 023°38'0 0.0
2017-Aug-09 21:00N 37°57' E 023°38'0 0.0
2017-Aug-09 20:31N 37°57' E 023°38'0 0.0
2017-Aug-09 20:01N 37°57' E 023°38'0 0.0
2017-Aug-09 19:30N 37°57' E 023°38'0 0.0
2017-Aug-09 19:01N 37°57' E 023°38'0 0.0
2017-Aug-09 18:30N 37°57' E 023°38'0 0.0
2017-Aug-09 18:00N 37°57' E 023°38'0 0.0
2017-Aug-09 17:31N 37°57' E 023°38'0 0.2
2017-Aug-09 17:01N 37°57' E 023°38'816.5
2017-Aug-09 16:31N 37°49' E 023°41'1121.3
2017-Aug-09 16:00N 37°40' E 023°48'4522.0
2017-Aug-09 13:58N 37°31' E 024°44'1021.5
2017-Aug-09 13:29N 37°29' E 024°57'3 6.4
2017-Aug-09 13:00N 37°26' E 024°57'1 2.6
2017-Aug-09 12:30N 37°26' E 024°58'1121.2
2017-Aug-09 12:00N 37°32' E 025°09'510.0
2017-Aug-09 11:31N 37°30' E 025°15'4 8.4
2017-Aug-09 11:00N 37°28' E 025°19'4 7.2
2017-Aug-09 10:30N 37°30' E 025°16'611.3
2017-Aug-09 10:01N 37°32' E 025°09'2 4.7
2017-Aug-09 09:30N 37°31' E 025°07'918.8
2017-Aug-09 09:00N 37°26' E 024°57'0 0.0
2017-Aug-09 08:31N 37°26' E 024°57'612.4
2017-Aug-09 08:00N 37°31' E 024°52'4421.0
2017-Aug-09 05:54N 37°36' E 023°56'922.1
2017-Aug-09 05:30N 37°39' E 023°46'1121.9
2017-Aug-09 05:00N 37°48' E 023°38'917.9
2017-Aug-09 04:30N 37°57' E 023°38'0 0.1
2017-Aug-09 04:00N 37°57' E 023°38'0 0.0
2017-Aug-09 03:30N 37°57' E 023°38'0 0.0
2017-Aug-09 03:00N 37°57' E 023°38'0 0.0
2017-Aug-09 02:30N 37°57' E 023°38'0 0.0
2017-Aug-09 02:00N 37°57' E 023°38'0 0.0
2017-Aug-09 01:30N 37°57' E 023°38'3 5.6
2017-Aug-09 01:00N 37°54' E 023°38'1020.7
2017-Aug-09 00:30N 37°45' E 023°44'6420.9
2017-Aug-08 21:28N 37°10' E 024°51'1021.5
2017-Aug-08 21:00N 37°07' E 025°03'5 7.9
2017-Aug-08 20:22N 37°05' E 025°09'513.8
2017-Aug-08 20:00N 37°09' E 025°12'816.6
2017-Aug-08 19:31N 37°06' E 025°22'3 6.1
2017-Aug-08 19:00N 37°05' E 025°19'6 0.6
2017-Aug-08 10:06N 36°59' E 025°21'221.7
2017-Aug-08 10:01N 37°01' E 025°20'611.6
2017-Aug-08 09:30N 37°06' E 025°22'4 7.3
2017-Aug-08 09:00N 37°09' E 025°19'918.3
2017-Aug-08 08:30N 37°06' E 025°08'2 3.4
2017-Aug-08 08:00N 37°06' E 025°06'6521.9
2017-Aug-08 05:01N 37°34' E 023°52'422.7
2017-Aug-08 04:50N 37°37' E 023°47'722.3
2017-Aug-08 04:31N 37°42' E 023°41'1122.6
2017-Aug-08 04:01N 37°53' E 023°37'4 7.5
2017-Aug-08 03:30N 37°57' E 023°38'0 0.0
2017-Aug-08 03:00N 37°57' E 023°38'0 0.0
2017-Aug-08 02:30N 37°57' E 023°38'0 0.0
2017-Aug-08 02:00N 37°57' E 023°38'0 0.0
2017-Aug-08 01:30N 37°57' E 023°38'0 0.0
2017-Aug-08 01:00N 37°57' E 023°38'0 0.0
2017-Aug-08 00:30N 37°57' E 023°38'0 0.0
2017-Aug-08 00:00N 37°57' E 023°38'0 0.0
2017-Aug-07 23:30N 37°57' E 023°38'0 0.0
2017-Aug-07 23:00N 37°57' E 023°38'0 0.0
2017-Aug-07 22:30N 37°57' E 023°38'0 0.0
2017-Aug-07 22:00N 37°57' E 023°38'0 0.0
2017-Aug-07 21:30N 37°57' E 023°38'0 0.0
2017-Aug-07 21:00N 37°57' E 023°38'0 0.0
2017-Aug-07 20:30N 37°57' E 023°38'0 0.0
2017-Aug-07 20:00N 37°57' E 023°38'0 0.0
2017-Aug-07 19:30N 37°57' E 023°38'0 0.0
2017-Aug-07 19:00N 37°57' E 023°38'0 0.0
2017-Aug-07 18:30N 37°57' E 023°38'0 0.0
2017-Aug-07 18:00N 37°57' E 023°38'0 0.0
2017-Aug-07 17:30N 37°57' E 023°38'0 0.0
2017-Aug-07 17:00N 37°57' E 023°38'5 9.1
2017-Aug-07 16:31N 37°52' E 023°39'1122.4
2017-Aug-07 16:00N 37°42' E 023°45'4822.0
2017-Aug-07 13:49N 37°31' E 024°44'1022.3
2017-Aug-07 13:22N 37°30' E 024°56'3 6.4
2017-Aug-07 12:50N 37°26' E 024°57'1 1.9
2017-Aug-07 12:30N 37°26' E 024°57'1122.6
2017-Aug-07 12:00N 37°32' E 025°09'4 7.7
2017-Aug-07 11:31N 37°30' E 025°13'510.9
2017-Aug-07 11:00N 37°28' E 025°20'0 0.0
2017-Aug-07 10:30N 37°28' E 025°20'3 6.2
2017-Aug-07 10:00N 37°29' E 025°16'612.4
2017-Aug-07 09:31N 37°32' E 025°09'915.4
2017-Aug-07 08:56N 37°27' E 024°60'3 4.6
2017-Aug-07 08:18N 37°26' E 024°57'614.4
2017-Aug-07 07:54N 37°31' E 024°52'4922.0
2017-Aug-07 05:41N 37°37' E 023°51'422.5
2017-Aug-07 05:30N 37°39' E 023°47'1121.8
2017-Aug-07 05:00N 37°47' E 023°38'918.8
2017-Aug-07 04:30N 37°57' E 023°38'0 0.1
2017-Aug-07 04:00N 37°57' E 023°38'0 0.0
2017-Aug-07 03:30N 37°57' E 023°38'0 0.0
2017-Aug-07 03:00N 37°57' E 023°38'0 0.0
2017-Aug-07 02:30N 37°57' E 023°38'0 0.0
2017-Aug-07 02:00N 37°57' E 023°38'0 0.0
2017-Aug-07 01:30N 37°57' E 023°38'4 7.9
2017-Aug-07 01:00N 37°53' E 023°38'1121.5
2017-Aug-07 00:30N 37°43' E 023°44'5421.3
2017-Aug-06 21:57N 37°19' E 024°46'  
Track history (hours):
 
Tides and Currents Weather Stations Pressure Air Temp Water Temp Dewpoint Dewpoint Depression Visibility Wind Speed Wind Dir Waves Ship Positions

Blue Star Naxos

Last reported at 2017-Aug-16 21:31 UTC. Time now 2017-Aug-16 21:50 UTC.
Position N 37°57' E 023°38'.

Length 124 m; draft 5 m.

Type: Passenger vessel. MMSI: 239923000.

Date/timePositionNaut miles runAvg speedWind from/ knotsBaromVisibWave heightAir tempDewpointWater temp
2017-Aug-16 21:31N 37°57' E 023°38'0 0.0
2017-Aug-16 21:01N 37°57' E 023°38'0 0.0
2017-Aug-16 20:30N 37°57' E 023°38'0 0.0
2017-Aug-16 20:00N 37°57' E 023°38'0 0.0
2017-Aug-16 19:30N 37°57' E 023°38'0 0.0
2017-Aug-16 19:01N 37°57' E 023°38'0 0.0
2017-Aug-16 18:30N 37°57' E 023°38'0 0.0
2017-Aug-16 18:00N 37°57' E 023°38'0 0.0
2017-Aug-16 17:31N 37°57' E 023°38'1 2.7
2017-Aug-16 17:01N 37°56' E 023°37'1020.5
2017-Aug-16 16:31N 37°47' E 023°42'1120.8
2017-Aug-16 15:57N 37°39' E 023°53'4121.8
2017-Aug-16 14:04N 37°31' E 024°44'223.0
2017-Aug-16 14:00N 37°31' E 024°46'1019.4
2017-Aug-16 13:30N 37°28' E 024°57'2 2.1
2017-Aug-16 12:37N 37°26' E 024°57'722.4
2017-Aug-16 12:17N 37°30' E 025°05'415.7
2017-Aug-16 12:00N 37°32' E 025°09'510.4
2017-Aug-16 11:30N 37°30' E 025°15'4 7.9
2017-Aug-16 11:00N 37°28' E 025°19'0 0.0
2017-Aug-16 10:30N 37°28' E 025°19'1 1.8
2017-Aug-16 10:01N 37°28' E 025°18'816.5
2017-Aug-16 09:30N 37°32' E 025°09'917.7
2017-Aug-16 09:00N 37°27' E 024°60'3 4.5
2017-Aug-16 08:21N 37°26' E 024°57'514.4
2017-Aug-16 08:00N 37°31' E 024°54'4821.9
2017-Aug-16 05:49N 37°37' E 023°54'722.6
2017-Aug-16 05:30N 37°39' E 023°46'1121.8
2017-Aug-16 05:00N 37°48' E 023°38'917.9
2017-Aug-16 04:31N 37°57' E 023°38'0 0.1
2017-Aug-16 04:00N 37°57' E 023°38'0 0.0
2017-Aug-16 03:30N 37°57' E 023°38'0 0.0
2017-Aug-16 03:00N 37°57' E 023°38'0 0.0
2017-Aug-16 02:30N 37°57' E 023°38'0 0.0
2017-Aug-16 02:00N 37°57' E 023°38'0 0.0
2017-Aug-16 01:30N 37°57' E 023°38'3 6.2
2017-Aug-16 01:01N 37°54' E 023°38'1121.2
2017-Aug-16 00:31N 37°44' E 023°44'6321.0
2017-Aug-15 21:29N 37°10' E 024°51'1021.2
2017-Aug-15 21:01N 37°07' E 025°03'5 7.9
2017-Aug-15 20:25N 37°05' E 025°09'513.4
2017-Aug-15 20:00N 37°10' E 025°13'816.2
2017-Aug-15 19:31N 37°06' E 025°22'2 3.4
2017-Aug-15 19:01N 37°06' E 025°20'7 0.8
2017-Aug-15 09:55N 36°59' E 025°21'717.3
2017-Aug-15 09:30N 37°06' E 025°21'4 7.4
2017-Aug-15 09:00N 37°09' E 025°19'917.1
2017-Aug-15 08:28N 37°05' E 025°08'2 4.0
2017-Aug-15 08:00N 37°06' E 025°06'1122.2
2017-Aug-15 07:30N 37°10' E 024°53'5622.2
2017-Aug-15 04:59N 37°35' E 023°50'1122.3
2017-Aug-15 04:30N 37°43' E 023°41'1122.6
2017-Aug-15 04:00N 37°54' E 023°37'3 6.5
2017-Aug-15 03:30N 37°57' E 023°38'0 0.0
2017-Aug-15 03:00N 37°57' E 023°38'0 0.0
2017-Aug-15 02:30N 37°57' E 023°38'0 0.0
2017-Aug-15 02:00N 37°57' E 023°38'0 0.0
2017-Aug-15 01:30N 37°57' E 023°38'0 0.0
2017-Aug-15 01:00N 37°57' E 023°38'0 0.0
2017-Aug-15 00:30N 37°57' E 023°38'0 0.0
2017-Aug-15 00:00N 37°57' E 023°38'0 0.0
2017-Aug-14 23:30N 37°57' E 023°38'0 0.0
2017-Aug-14 23:00N 37°57' E 023°38'0 0.0
2017-Aug-14 22:30N 37°57' E 023°38'0 0.0
2017-Aug-14 22:00N 37°57' E 023°38'0 0.0
2017-Aug-14 21:30N 37°57' E 023°38'0 0.0
2017-Aug-14 21:00N 37°57' E 023°38'0 0.0
2017-Aug-14 20:30N 37°57' E 023°38'0 0.0
2017-Aug-14 20:00N 37°57' E 023°38'0 0.0
2017-Aug-14 19:30N 37°57' E 023°38'0 0.0
2017-Aug-14 19:00N 37°57' E 023°38'0 0.0
2017-Aug-14 18:30N 37°57' E 023°38'0 0.0
2017-Aug-14 18:00N 37°57' E 023°38'0 0.0
2017-Aug-14 17:29N 37°57' E 023°38'0 0.0
2017-Aug-14 17:00N 37°57' E 023°38'4 7.1
2017-Aug-14 16:31N 37°53' E 023°39'1122.4
2017-Aug-14 16:00N 37°43' E 023°44'4921.6
2017-Aug-14 13:46N 37°31' E 024°44'622.5
2017-Aug-14 13:31N 37°31' E 024°51'6 6.9
2017-Aug-14 12:36N 37°26' E 024°57'0 5.3
2017-Aug-14 12:30N 37°26' E 024°57'1122.5
2017-Aug-14 12:00N 37°32' E 025°09'4 8.7
2017-Aug-14 11:31N 37°30' E 025°14'5 9.8
2017-Aug-14 11:00N 37°28' E 025°19'0 0.0
2017-Aug-14 10:30N 37°28' E 025°19'0 0.4
2017-Aug-14 10:00N 37°28' E 025°19'917.9
2017-Aug-14 09:30N 37°32' E 025°09'612.1
2017-Aug-14 09:00N 37°29' E 025°03'6 7.4
2017-Aug-14 08:16N 37°26' E 024°57'618.7
2017-Aug-14 07:55N 37°31' E 024°52'4621.9
2017-Aug-14 05:49N 37°37' E 023°55'722.5
2017-Aug-14 05:30N 37°39' E 023°46'1121.6
2017-Aug-14 05:01N 37°48' E 023°39'918.3
2017-Aug-14 04:30N 37°57' E 023°38'0 0.1
2017-Aug-14 04:00N 37°57' E 023°38'0 0.0
2017-Aug-14 03:30N 37°57' E 023°38'0 0.0
2017-Aug-14 03:00N 37°57' E 023°38'0 0.0
2017-Aug-14 02:30N 37°57' E 023°38'0 0.0
2017-Aug-14 02:00N 37°57' E 023°38'0 0.0
2017-Aug-14 01:30N 37°57' E 023°38'4 7.2
2017-Aug-14 01:00N 37°53' E 023°38'1121.4
2017-Aug-14 00:31N 37°44' E 023°44'1121.1
2017-Aug-14 00:00N 37°36' E 023°54'5221.7
2017-Aug-13 21:36N 37°11' E 024°51'222.0
2017-Aug-13 21:30N 37°10' E 024°53'1121.8
2017-Aug-13 21:01N 37°06' E 025°06'2 3.1
2017-Aug-13 20:31N 37°05' E 025°08'917.9
2017-Aug-13 20:00N 37°10' E 025°17'510.2
2017-Aug-13 19:31N 37°06' E 025°22'611.7
2017-Aug-13 19:00N 37°01' E 025°20'2 0.2
2017-Aug-13 10:11N 36°59' E 025°21'421.7
2017-Aug-13 10:00N 37°02' E 025°19'510.0
2017-Aug-13 09:31N 37°06' E 025°22'510.6
2017-Aug-13 09:01N 37°10' E 025°17'9 9.8
2017-Aug-13 08:08N 37°05' E 025°08'319.9
2017-Aug-13 08:00N 37°06' E 025°06'1122.6
2017-Aug-13 07:31N 37°10' E 024°52'5522.3
2017-Aug-13 05:02N 37°35' E 023°50'322.6
2017-Aug-13 04:55N 37°37' E 023°48'922.2
2017-Aug-13 04:30N 37°44' E 023°41'1122.5
2017-Aug-13 04:01N 37°55' E 023°37'2 5.0
2017-Aug-13 03:31N 37°57' E 023°38'0 0.0
2017-Aug-13 03:01N 37°57' E 023°38'0 0.0
2017-Aug-13 02:31N 37°57' E 023°38'0 0.0
2017-Aug-13 02:01N 37°57' E 023°38'0 0.0
2017-Aug-13 01:31N 37°57' E 023°38'0 0.0
2017-Aug-13 01:01N 37°57' E 023°38'0 0.0
2017-Aug-13 00:30N 37°57' E 023°38'0 0.0
2017-Aug-13 00:01N 37°57' E 023°38'0 0.0
2017-Aug-12 23:31N 37°57' E 023°38'0 0.0
2017-Aug-12 23:01N 37°57' E 023°38'0 0.0
2017-Aug-12 22:30N 37°57' E 023°38'0 0.0
2017-Aug-12 22:00N 37°57' E 023°38'0 0.0
2017-Aug-12 21:31N 37°57' E 023°38'0 0.0
2017-Aug-12 21:01N 37°57' E 023°38'0 0.0
2017-Aug-12 20:31N 37°57' E 023°38'0 0.0
2017-Aug-12 20:00N 37°57' E 023°38'0 0.0
2017-Aug-12 19:31N 37°57' E 023°38'0 0.0
2017-Aug-12 19:00N 37°57' E 023°38'0 0.0
2017-Aug-12 18:31N 37°57' E 023°38'0 0.0
2017-Aug-12 18:01N 37°57' E 023°38'0 0.0
2017-Aug-12 17:31N 37°57' E 023°38'0 0.0
2017-Aug-12 17:00N 37°57' E 023°38'3 6.5
2017-Aug-12 16:30N 37°54' E 023°38'1122.4
2017-Aug-12 16:00N 37°44' E 023°44'1121.8
2017-Aug-12 15:29N 37°38' E 023°57'3822.2
2017-Aug-12 13:47N 37°31' E 024°44'622.3
2017-Aug-12 13:30N 37°31' E 024°52'611.8
2017-Aug-12 13:00N 37°26' E 024°57'1 1.8
2017-Aug-12 12:31N 37°26' E 024°58'1122.0
2017-Aug-12 12:00N 37°32' E 025°09'5 9.4
2017-Aug-12 11:30N 37°30' E 025°14'4 8.9
2017-Aug-12 11:00N 37°28' E 025°19'0 0.0
2017-Aug-12 10:30N 37°28' E 025°19'713.9
2017-Aug-12 10:00N 37°31' E 025°12'4 8.3
2017-Aug-12 09:30N 37°31' E 025°06'916.2
2017-Aug-12 08:57N 37°26' E 024°57'0 0.0
2017-Aug-12 08:19N 37°26' E 024°57'614.9
2017-Aug-12 07:56N 37°31' E 024°52'4721.8
2017-Aug-12 05:46N 37°37' E 023°54'622.0
2017-Aug-12 05:30N 37°39' E 023°47'1121.5
2017-Aug-12 05:01N 37°48' E 023°38'918.4
2017-Aug-12 04:30N 37°57' E 023°38'0 0.1
2017-Aug-12 04:00N 37°57' E 023°38'0 0.0
2017-Aug-12 03:31N 37°57' E 023°38'611.9
2017-Aug-12 03:01N 37°51' E 023°40'1122.5
2017-Aug-12 02:30N 37°42' E 023°49'5921.9
2017-Aug-11 23:49N 37°10' E 024°51'722.6
2017-Aug-11 23:30N 37°08' E 024°59'8 8.5
2017-Aug-11 22:35N 37°05' E 025°09'117.7
2017-Aug-11 22:30N 37°06' E 025°07'1122.3
2017-Aug-11 22:00N 37°09' E 024°54'5821.9
2017-Aug-11 19:21N 37°36' E 023°49'822.1
2017-Aug-11 18:59N 37°42' E 023°42'1122.4
2017-Aug-11 18:31N 37°52' E 023°37'5 9.9
2017-Aug-11 18:00N 37°57' E 023°38'0 0.0
2017-Aug-11 17:30N 37°57' E 023°38'0 0.0
2017-Aug-11 17:00N 37°57' E 023°38'510.3
2017-Aug-11 16:31N 37°52' E 023°39'1122.4
2017-Aug-11 16:01N 37°42' E 023°47'4621.7
2017-Aug-11 13:52N 37°31' E 024°44'1021.2
2017-Aug-11 13:23N 37°29' E 024°57'3 7.6
2017-Aug-11 12:59N 37°26' E 024°57'2 3.5
2017-Aug-11 12:30N 37°27' E 024°59'1020.4
2017-Aug-11 12:00N 37°32' E 025°09'4 8.8
2017-Aug-11 11:31N 37°30' E 025°14'5 9.6
2017-Aug-11 11:00N 37°28' E 025°19'0 0.0
2017-Aug-11 10:30N 37°28' E 025°19'918.3
2017-Aug-11 10:00N 37°32' E 025°09'2 3.0
2017-Aug-11 09:30N 37°31' E 025°08'1018.7
2017-Aug-11 08:58N 37°26' E 024°57'0 0.7
2017-Aug-11 08:20N 37°26' E 024°57'618.3
2017-Aug-11 08:00N 37°31' E 024°52'4421.6
2017-Aug-11 05:58N 37°36' E 023°57'1022.1
2017-Aug-11 05:30N 37°39' E 023°45'1122.0
2017-Aug-11 05:01N 37°48' E 023°38'917.1
2017-Aug-11 04:30N 37°57' E 023°38'0 0.1
2017-Aug-11 04:01N 37°57' E 023°38'0 0.0
2017-Aug-11 03:31N 37°57' E 023°38'0 0.0
2017-Aug-11 03:01N 37°57' E 023°38'0 0.0
2017-Aug-11 02:31N 37°57' E 023°38'0 0.0
2017-Aug-11 02:01N 37°57' E 023°38'0 0.0
2017-Aug-11 01:30N 37°57' E 023°38'510.2
2017-Aug-11 01:00N 37°52' E 023°39'1121.5
2017-Aug-11 00:30N 37°42' E 023°45'6120.8
2017-Aug-10 21:34N 37°10' E 024°51'121.7
2017-Aug-10 21:30N 37°10' E 024°53'1121.2
2017-Aug-10 21:00N 37°06' E 025°05'2 4.1
2017-Aug-10 20:30N 37°06' E 025°07'918.2
2017-Aug-10 20:01N 37°10' E 025°17'510.5
2017-Aug-10 19:30N 37°06' E 025°22'510.8
2017-Aug-10 19:00N 37°02' E 025°19'3 0.3
2017-Aug-10 10:25N 36°59' E 025°21'717.5
2017-Aug-10 10:00N 37°06' E 025°21'1 1.5
2017-Aug-10 09:30N 37°06' E 025°22'815.4
2017-Aug-10 09:00N 37°10' E 025°14'6 8.7
2017-Aug-10 08:19N 37°05' E 025°08'621.3
2017-Aug-10 08:00N 37°08' E 025°01'6521.7
2017-Aug-10 05:01N 37°37' E 023°48'222.1
2017-Aug-10 04:56N 37°38' E 023°46'922.1
2017-Aug-10 04:30N 37°45' E 023°39'1121.9
2017-Aug-10 04:00N 37°56' E 023°37'1 2.1
2017-Aug-10 03:30N 37°57' E 023°38'0 0.0
2017-Aug-10 03:00N 37°57' E 023°38'0 0.0
2017-Aug-10 02:30N 37°57' E 023°38'0 0.0
2017-Aug-10 02:00N 37°57' E 023°38'0 0.0
2017-Aug-10 01:30N 37°57' E 023°38'0 0.0
2017-Aug-10 01:00N 37°57' E 023°38'0 0.0
2017-Aug-10 00:30N 37°57' E 023°38'0 0.0
2017-Aug-10 00:00N 37°57' E 023°38'0 0.0
2017-Aug-09 23:30N 37°57' E 023°38'0 0.0
2017-Aug-09 23:00N 37°57' E 023°38'0 0.0
2017-Aug-09 22:31N 37°57' E 023°38'0 0.0
2017-Aug-09 22:00N 37°57' E 023°38'0 0.0
2017-Aug-09 21:30N 37°57' E 023°38'0 0.0
2017-Aug-09 21:00N 37°57' E 023°38'0 0.0
2017-Aug-09 20:31N 37°57' E 023°38'0 0.0
2017-Aug-09 20:01N 37°57' E 023°38'0 0.0
2017-Aug-09 19:30N 37°57' E 023°38'0 0.0
2017-Aug-09 19:01N 37°57' E 023°38'0 0.0
2017-Aug-09 18:30N 37°57' E 023°38'0 0.0
2017-Aug-09 18:00N 37°57' E 023°38'0 0.0
2017-Aug-09 17:31N 37°57' E 023°38'0 0.2
2017-Aug-09 17:01N 37°57' E 023°38'816.5
2017-Aug-09 16:31N 37°49' E 023°41'1121.3
2017-Aug-09 16:00N 37°40' E 023°48'4522.0
2017-Aug-09 13:58N 37°31' E 024°44'1021.5
2017-Aug-09 13:29N 37°29' E 024°57'3 6.4
2017-Aug-09 13:00N 37°26' E 024°57'1 2.6
2017-Aug-09 12:30N 37°26' E 024°58'1121.2
2017-Aug-09 12:00N 37°32' E 025°09'510.0
2017-Aug-09 11:31N 37°30' E 025°15'4 8.4
2017-Aug-09 11:00N 37°28' E 025°19'4 7.2
2017-Aug-09 10:30N 37°30' E 025°16'611.3
2017-Aug-09 10:01N 37°32' E 025°09'2 4.7
2017-Aug-09 09:30N 37°31' E 025°07'918.8
2017-Aug-09 09:00N 37°26' E 024°57'0 0.0
2017-Aug-09 08:31N 37°26' E 024°57'612.4
2017-Aug-09 08:00N 37°31' E 024°52'4421.0
2017-Aug-09 05:54N 37°36' E 023°56'922.1
2017-Aug-09 05:30N 37°39' E 023°46'1121.9
2017-Aug-09 05:00N 37°48' E 023°38'917.9
2017-Aug-09 04:30N 37°57' E 023°38'0 0.1
2017-Aug-09 04:00N 37°57' E 023°38'0 0.0
2017-Aug-09 03:30N 37°57' E 023°38'0 0.0
2017-Aug-09 03:00N 37°57' E 023°38'0 0.0
2017-Aug-09 02:30N 37°57' E 023°38'0 0.0
2017-Aug-09 02:00N 37°57' E 023°38'0 0.0
2017-Aug-09 01:30N 37°57' E 023°38'3 5.6
2017-Aug-09 01:00N 37°54' E 023°38'1020.7
2017-Aug-09 00:30N 37°45' E 023°44'6420.9
2017-Aug-08 21:28N 37°10' E 024°51'1021.5
2017-Aug-08 21:00N 37°07' E 025°03'5 7.9
2017-Aug-08 20:22N 37°05' E 025°09'513.8
2017-Aug-08 20:00N 37°09' E 025°12'816.6
2017-Aug-08 19:31N 37°06' E 025°22'3 6.1
2017-Aug-08 19:00N 37°05' E 025°19'6 0.6
2017-Aug-08 10:06N 36°59' E 025°21'221.7
2017-Aug-08 10:01N 37°01' E 025°20'611.6
2017-Aug-08 09:30N 37°06' E 025°22'4 7.3
2017-Aug-08 09:00N 37°09' E 025°19'918.3
2017-Aug-08 08:30N 37°06' E 025°08'2 3.4
2017-Aug-08 08:00N 37°06' E 025°06'6521.9
2017-Aug-08 05:01N 37°34' E 023°52'422.7
2017-Aug-08 04:50N 37°37' E 023°47'722.3
2017-Aug-08 04:31N 37°42' E 023°41'1122.6
2017-Aug-08 04:01N 37°53' E 023°37'4 7.5
2017-Aug-08 03:30N 37°57' E 023°38'0 0.0
2017-Aug-08 03:00N 37°57' E 023°38'0 0.0
2017-Aug-08 02:30N 37°57' E 023°38'0 0.0
2017-Aug-08 02:00N 37°57' E 023°38'0 0.0
2017-Aug-08 01:30N 37°57' E 023°38'0 0.0
2017-Aug-08 01:00N 37°57' E 023°38'0 0.0
2017-Aug-08 00:30N 37°57' E 023°38'0 0.0
2017-Aug-08 00:00N 37°57' E 023°38'0 0.0
2017-Aug-07 23:30N 37°57' E 023°38'0 0.0
2017-Aug-07 23:00N 37°57' E 023°38'0 0.0
2017-Aug-07 22:30N 37°57' E 023°38'0 0.0
2017-Aug-07 22:00N 37°57' E 023°38'0 0.0
2017-Aug-07 21:30N 37°57' E 023°38'0 0.0
2017-Aug-07 21:00N 37°57' E 023°38'0 0.0
2017-Aug-07 20:30N 37°57' E 023°38'0 0.0
2017-Aug-07 20:00N 37°57' E 023°38'0 0.0
2017-Aug-07 19:30N 37°57' E 023°38'0 0.0
2017-Aug-07 19:00N 37°57' E 023°38'0 0.0
2017-Aug-07 18:30N 37°57' E 023°38'0 0.0
2017-Aug-07 18:00N 37°57' E 023°38'0 0.0
2017-Aug-07 17:30N 37°57' E 023°38'0 0.0
2017-Aug-07 17:00N 37°57' E 023°38'5 9.1
2017-Aug-07 16:31N 37°52' E 023°39'1122.4
2017-Aug-07 16:00N 37°42' E 023°45'4822.0
2017-Aug-07 13:49N 37°31' E 024°44'1022.3
2017-Aug-07 13:22N 37°30' E 024°56'3 6.4
2017-Aug-07 12:50N 37°26' E 024°57'1 1.9
2017-Aug-07 12:30N 37°26' E 024°57'1122.6
2017-Aug-07 12:00N 37°32' E 025°09'4 7.7
2017-Aug-07 11:31N 37°30' E 025°13'510.9
2017-Aug-07 11:00N 37°28' E 025°20'0 0.0
2017-Aug-07 10:30N 37°28' E 025°20'3 6.2
2017-Aug-07 10:00N 37°29' E 025°16'612.4
2017-Aug-07 09:31N 37°32' E 025°09'915.4
2017-Aug-07 08:56N 37°27' E 024°60'3 4.6
2017-Aug-07 08:18N 37°26' E 024°57'614.4
2017-Aug-07 07:54N 37°31' E 024°52'4922.0
2017-Aug-07 05:41N 37°37' E 023°51'422.5
2017-Aug-07 05:30N 37°39' E 023°47'1121.8
2017-Aug-07 05:00N 37°47' E 023°38'918.8
2017-Aug-07 04:30N 37°57' E 023°38'0 0.1
2017-Aug-07 04:00N 37°57' E 023°38'0 0.0
2017-Aug-07 03:30N 37°57' E 023°38'0 0.0
2017-Aug-07 03:00N 37°57' E 023°38'0 0.0
2017-Aug-07 02:30N 37°57' E 023°38'0 0.0
2017-Aug-07 02:00N 37°57' E 023°38'0 0.0
2017-Aug-07 01:30N 37°57' E 023°38'4 7.9
2017-Aug-07 01:00N 37°53' E 023°38'1121.5
2017-Aug-07 00:30N 37°43' E 023°44'5421.3
2017-Aug-06 21:57N 37°19' E 024°46'  

Dump ship's entire track history